EDDG/FMO METAR and TAF weather

Enter ICAO airport designator
Station Type Date Time Source
EDDG METAR 2019/10/16 19:20 UTC NOAA

EDDG 161920Z 18008KT 140V200 9999 -RA BKN011 14/12 Q1008 TEMPO BKN008


Station Type Date Time Source
EDDG Decoded METAR 2019/10/16 19:20 UTC NOAA

Muenster / Osnabrueck, Germany (EDDG) 52-08N 007-42E 53M
Oct 16, 2019 - 03:20 PM EDT / 2019.10.16 1920 UTC
Wind: from the S (180 degrees) at 9 MPH (8 KT) (direction variable):0
Visibility: greater than 7 mile(s):0
Sky conditions: mostly cloudy
Weather: light rain
Temperature: 57 F (14 C)
Dew Point: 53 F (12 C)
Relative Humidity: 87%
Pressure (altimeter): 29.77 in. Hg (1008 hPa)
ob: EDDG 161920Z 18008KT 140V200 9999 -RA BKN011 14/12 Q1008 TEMPO BKN008
cycle: 19

Station Type Date Time Source
EDDG TAF 2019/10/16 18:27 UTC NOAA

TAF EDDG 161700Z 1618/1718 19008KT 4000 -RA BKN007
TEMPO 1618/1623 2500 BKN004 PROB40
TEMPO 1620/1704 RA
BECMG 1708/1711 BKN013

Example: see airport list